Time;durP1;ratioP1;P1;durP2;ratioP2;P2;SDS_P1;SDS_P2;PMS_P1;PMS_P2;Temp;Humidity;BMP_temperature;BMP_pressure;BME280_temperature;BME280_humidity;BME280_pressure;Samples;Min_cycle;Max_cycle;Signal;HPM_P1;HPM_P2
2021/06/05 00:00:31;;;;;;;26.70;23.80;;;28.20;57.80;;;;;;4975796;28;20446;-80
2021/06/05 00:02:59;;;;;;;28.57;25.00;;;28.20;57.70;;;;;;4979973;28;20441;-80
2021/06/05 00:05:28;;;;;;;33.37;27.33;;;28.20;57.60;;;;;;4969033;28;20433;-80
2021/06/05 00:07:56;;;;;;;29.40;26.20;;;28.20;57.40;;;;;;4975239;28;20443;-80
2021/06/05 00:10:27;;;;;;;29.40;24.60;;;28.30;57.40;;;;;;4973107;28;20524;-80
2021/06/05 00:12:55;;;;;;;28.70;25.70;;;28.40;57.30;;;;;;4975755;28;20535;-80
2021/06/05 00:15:26;;;;;;;31.70;25.40;;;28.50;56.60;;;;;;4992742;28;20465;-80
2021/06/05 00:17:54;;;;;;;27.93;24.67;;;28.40;56.70;;;;;;4993902;28;20433;-80
2021/06/05 00:20:22;;;;;;;31.63;26.50;;;28.30;56.70;;;;;;4995460;28;20480;-80
2021/06/05 00:22:50;;;;;;;28.30;24.73;;;28.20;57.30;;;;;;4994544;28;20448;-80
2021/06/05 00:25:17;;;;;;;28.13;24.00;;;28.20;57.50;;;;;;4993663;28;20437;-80
2021/06/05 00:27:45;;;;;;;26.40;22.63;;;28.10;57.70;;;;;;4996388;28;20527;-80
2021/06/05 00:30:13;;;;;;;27.77;24.63;;;28.00;58.00;;;;;;4993724;28;20443;-80
2021/06/05 00:32:42;;;;;;;28.87;24.80;;;28.00;57.70;;;;;;4996316;28;20440;-80
2021/06/05 00:35:10;;;;;;;30.50;25.80;;;27.80;58.00;;;;;;4992813;28;20543;-80
2021/06/05 00:37:38;;;;;;;24.40;21.80;;;27.80;58.20;;;;;;4995654;28;20415;-80
2021/06/05 00:40:06;;;;;;;28.43;24.83;;;27.90;58.50;;;;;;4992442;28;20448;-80
2021/06/05 00:42:34;;;;;;;25.10;21.40;;;28.10;57.40;;;;;;4992368;28;20423;-80
2021/06/05 00:45:01;;;;;;;28.60;23.43;;;28.10;57.90;;;;;;4993504;28;20523;-80
2021/06/05 00:47:29;;;;;;;29.37;24.80;;;28.10;57.30;;;;;;4993423;28;20439;-80
2021/06/05 00:49:58;;;;;;;26.57;23.77;;;28.00;57.60;;;;;;4981380;28;20420;-80
2021/06/05 00:52:25;;;;;;;29.53;22.57;;;27.90;57.70;;;;;;4990188;28;20443;-80
2021/06/05 00:54:53;;;;;;;26.77;23.90;;;27.80;58.30;;;;;;4985475;28;20505;-80
2021/06/05 00:57:20;;;;;;;27.00;23.80;;;27.90;58.00;;;;;;4984652;28;20513;-80
2021/06/05 00:59:48;;;;;;;26.73;23.83;;;27.80;58.00;;;;;;4985186;28;20444;-80
2021/06/05 01:02:15;;;;;;;25.30;22.20;;;27.80;58.40;;;;;;4984720;28;20471;-80
2021/06/05 01:04:44;;;;;;;26.17;22.30;;;27.80;58.50;;;;;;4984318;28;20482;-80
2021/06/05 01:07:17;;;;;;;28.30;22.53;;;27.90;58.00;;;;;;4986291;28;20527;-80
2021/06/05 01:09:47;;;;;;;26.30;23.47;;;27.90;57.80;;;;;;4988609;28;20468;-80
2021/06/05 01:12:19;;;;;;;25.90;22.70;;;27.70;58.10;;;;;;4988167;28;20536;-80
2021/06/05 01:14:52;;;;;;;25.40;22.70;;;27.80;58.00;;;;;;4988827;28;20525;-79
2021/06/05 01:17:24;;;;;;;23.70;21.20;;;27.70;58.20;;;;;;4986597;28;20469;-79
2021/06/05 01:19:55;;;;;;;26.97;24.07;;;27.60;58.60;;;;;;4988816;28;20449;-80
2021/06/05 01:22:42;;;;;;;26.23;22.93;;;27.60;58.30;;;;;;4988840;28;20455;-80
2021/06/05 01:25:57;;;;;;;25.63;23.03;;;27.60;58.30;;;;;;4988758;28;20422;-80
2021/06/05 01:28:30;;;;;;;25.83;21.97;;;27.60;58.20;;;;;;4928538;29;20444;-80
2021/06/05 01:30:58;;;;;;;23.87;21.20;;;27.40;58.90;;;;;;4978801;28;20447;-80
2021/06/05 01:33:28;;;;;;;26.03;23.17;;;27.40;58.90;;;;;;4988256;28;20485;-80
2021/06/05 01:35:55;;;;;;;22.03;19.80;;;27.50;58.60;;;;;;4988334;28;20451;-80
2021/06/05 01:38:24;;;;;;;22.63;20.33;;;27.60;58.30;;;;;;4988378;28;20448;-80
2021/06/05 01:40:51;;;;;;;23.53;21.03;;;27.60;58.20;;;;;;4987574;28;20429;-80
2021/06/05 01:43:21;;;;;;;23.50;21.07;;;27.60;57.90;;;;;;4987067;28;20476;-80
2021/06/05 01:45:54;;;;;;;27.50;22.60;;;27.50;58.60;;;;;;4994300;28;20462;-80
2021/06/05 01:48:21;;;;;;;27.17;24.40;;;27.50;58.20;;;;;;4988291;28;20438;-80
2021/06/05 01:50:49;;;;;;;27.03;23.97;;;27.50;58.40;;;;;;4985465;28;20510;-80
2021/06/05 01:53:19;;;;;;;26.60;23.80;;;27.40;58.30;;;;;;5002639;28;20405;-80
2021/06/05 01:55:50;;;;;;;31.27;23.80;;;27.40;58.70;;;;;;4986970;28;20489;-80
2021/06/05 01:58:18;;;;;;;26.87;23.90;;;27.30;59.10;;;;;;4987469;28;20453;-80
2021/06/05 02:00:48;;;;;;;25.57;22.80;;;27.40;58.40;;;;;;4987581;28;20519;-80
2021/06/05 02:03:19;;;;;;;25.77;21.20;;;27.30;58.90;;;;;;4987286;28;20518;-80
2021/06/05 02:05:46;;;;;;;23.90;21.23;;;27.30;58.90;;;;;;4987666;28;20490;-80
2021/06/05 02:08:14;;;;;;;27.43;22.43;;;27.40;58.40;;;;;;4988096;28;20568;-80
2021/06/05 02:10:42;;;;;;;24.00;21.57;;;27.50;57.80;;;;;;4987438;28;20440;-80
2021/06/05 02:13:16;;;;;;;23.47;20.97;;;27.60;58.00;;;;;;4987706;28;20440;-79
2021/06/05 02:15:45;;;;;;;23.27;20.77;;;27.70;58.00;;;;;;4983068;28;20547;-80
2021/06/05 02:18:13;;;;;;;23.10;20.67;;;27.70;57.60;;;;;;4987381;28;20420;-80
2021/06/05 02:20:50;;;;;;;22.90;20.50;;;27.60;57.50;;;;;;4987045;28;20507;-80
2021/06/05 02:23:20;;;;;;;28.50;25.50;;;27.70;57.80;;;;;;4987279;28;20506;-80
2021/06/05 02:25:49;;;;;;;24.90;22.27;;;27.80;56.80;;;;;;4987402;28;20447;-81
2021/06/05 02:28:17;;;;;;;25.53;21.40;;;27.80;57.30;;;;;;4987659;28;20431;-81
2021/06/05 02:30:44;;;;;;;30.30;23.70;;;27.80;57.30;;;;;;4986914;28;20452;-81
2021/06/05 02:33:12;;;;;;;24.13;21.53;;;27.60;57.40;;;;;;4987384;28;20477;-81
2021/06/05 02:35:41;;;;;;;23.93;21.10;;;27.60;57.60;;;;;;4986980;28;20450;-81
2021/06/05 02:38:11;;;;;;;23.23;20.93;;;27.70;57.50;;;;;;4987394;28;20544;-81
2021/06/05 02:40:39;;;;;;;24.40;21.30;;;27.80;57.20;;;;;;4987057;28;20472;-81
2021/06/05 02:43:08;;;;;;;26.07;23.27;;;27.80;57.00;;;;;;4987172;28;20495;-82
2021/06/05 02:45:40;;;;;;;28.23;23.90;;;27.80;56.90;;;;;;4987002;28;20448;-81
2021/06/05 02:48:08;;;;;;;25.97;23.17;;;27.60;57.10;;;;;;4986996;28;20429;-80
2021/06/05 02:50:37;;;;;;;28.67;23.80;;;27.60;57.60;;;;;;4987168;28;20424;-81
2021/06/05 02:53:05;;;;;;;26.73;23.93;;;27.60;57.70;;;;;;4986425;28;20455;-81
2021/06/05 02:55:34;;;;;;;27.97;25.07;;;27.50;57.40;;;;;;4986411;28;20437;-81
2021/06/05 02:58:02;;;;;;;25.33;22.63;;;27.50;57.60;;;;;;4987299;28;20492;-81
2021/06/05 03:00:31;;;;;;;26.00;22.80;;;27.40;58.10;;;;;;4986611;28;20459;-80
2021/06/05 03:02:59;;;;;;;23.87;21.47;;;27.50;58.10;;;;;;4986545;28;20508;-80
2021/06/05 03:05:28;;;;;;;24.13;21.63;;;27.40;58.10;;;;;;4986929;28;20448;-80
2021/06/05 03:07:56;;;;;;;25.33;22.40;;;27.50;58.20;;;;;;4987355;28;20432;-80
2021/06/05 03:10:24;;;;;;;24.40;21.90;;;27.50;57.60;;;;;;4986717;28;20490;-81
2021/06/05 03:12:53;;;;;;;25.10;22.50;;;27.40;58.10;;;;;;4987089;28;20467;-80
2021/06/05 03:15:21;;;;;;;25.43;22.73;;;27.40;57.90;;;;;;4986708;28;20492;-81
2021/06/05 03:17:51;;;;;;;27.97;25.10;;;27.30;58.30;;;;;;4986681;28;20428;-81
2021/06/05 03:20:22;;;;;;;26.70;23.90;;;27.20;58.50;;;;;;4986398;28;20449;-81
2021/06/05 03:22:50;;;;;;;26.30;23.50;;;27.30;58.50;;;;;;4986307;28;20575;-80
2021/06/05 03:25:18;;;;;;;28.57;24.80;;;27.30;58.20;;;;;;4986251;28;20475;-80
2021/06/05 03:27:45;;;;;;;25.80;22.97;;;27.30;58.30;;;;;;4986538;28;20505;-81
2021/06/05 03:30:15;;;;;;;26.83;23.93;;;27.30;58.50;;;;;;4980839;28;20520;-81
2021/06/05 03:32:43;;;;;;;28.73;23.47;;;27.40;58.40;;;;;;4986084;28;20507;-81
2021/06/05 03:35:11;;;;;;;27.70;24.83;;;27.50;57.60;;;;;;4986738;28;20442;-81
2021/06/05 03:37:39;;;;;;;25.37;22.60;;;27.30;58.10;;;;;;4986047;28;20496;-81
2021/06/05 03:40:07;;;;;;;31.00;27.00;;;27.30;58.80;;;;;;4985999;28;20479;-81
2021/06/05 03:42:35;;;;;;;39.10;31.50;;;27.40;58.60;;;;;;4985851;28;20413;-80
2021/06/05 03:45:03;;;;;;;34.53;29.27;;;27.50;58.20;;;;;;4986361;28;20473;-81
2021/06/05 03:47:32;;;;;;;33.23;26.83;;;27.50;58.20;;;;;;4986373;28;20465;-81
2021/06/05 03:50:00;;;;;;;30.00;26.83;;;27.40;58.00;;;;;;4985784;28;20441;-81
2021/06/05 03:52:27;;;;;;;32.37;28.50;;;27.40;58.40;;;;;;4985395;28;20424;-81
2021/06/05 03:54:55;;;;;;;30.17;26.40;;;27.30;58.40;;;;;;4986378;28;20547;-81
2021/06/05 03:57:25;;;;;;;30.90;26.37;;;27.40;58.80;;;;;;4985989;28;20484;-81
2021/06/05 03:59:53;;;;;;;28.43;25.43;;;27.20;59.30;;;;;;4985644;28;20484;-81
2021/06/05 04:02:22;;;;;;;30.20;26.03;;;27.30;58.80;;;;;;4988436;28;20423;-84
2021/06/05 04:04:51;;;;;;;29.37;26.27;;;27.40;58.80;;;;;;4985264;28;20455;-83
2021/06/05 04:07:19;;;;;;;30.47;26.20;;;27.40;58.80;;;;;;4991048;28;20467;-78
2021/06/05 04:09:46;;;;;;;31.80;27.37;;;27.50;58.20;;;;;;4996588;28;20532;-78
2021/06/05 04:12:14;;;;;;;28.50;25.50;;;27.50;58.40;;;;;;5005049;28;20712;-83
2021/06/05 04:14:42;;;;;;;27.00;24.10;;;27.50;58.60;;;;;;5004170;28;20439;-78
2021/06/05 04:17:09;;;;;;;25.77;23.07;;;27.60;58.40;;;;;;5004632;28;20521;-78
2021/06/05 04:19:37;;;;;;;24.40;21.90;;;27.60;58.30;;;;;;5005206;28;20531;-78
2021/06/05 04:22:07;;;;;;;25.27;22.63;;;27.60;58.30;;;;;;5004853;28;20477;-82
2021/06/05 04:24:34;;;;;;;27.90;23.63;;;27.70;58.20;;;;;;5005225;28;20517;-82
2021/06/05 04:27:01;;;;;;;25.57;22.87;;;27.60;57.90;;;;;;5003068;28;20495;-82
2021/06/05 04:29:29;;;;;;;26.47;23.77;;;27.70;58.00;;;;;;4999084;28;20446;-82
2021/06/05 04:31:56;;;;;;;26.77;23.73;;;27.60;57.90;;;;;;4992543;28;20531;-82
2021/06/05 04:34:24;;;;;;;25.47;22.20;;;27.60;58.10;;;;;;5001258;28;20449;-82
2021/06/05 04:36:52;;;;;;;23.50;21.13;;;27.70;58.20;;;;;;5004955;28;20432;-84
2021/06/05 04:39:20;;;;;;;25.47;22.90;;;27.70;58.00;;;;;;5000294;28;20472;-83
2021/06/05 04:41:48;;;;;;;26.33;23.57;;;27.70;58.00;;;;;;5004036;28;20440;-83
2021/06/05 04:44:15;;;;;;;25.10;22.50;;;27.70;57.80;;;;;;5004706;28;20541;-79
2021/06/05 04:46:43;;;;;;;25.90;23.30;;;27.70;58.20;;;;;;5004992;28;20559;-83
2021/06/05 04:49:11;;;;;;;22.87;20.53;;;27.80;58.00;;;;;;5004785;28;20456;-84
2021/06/05 04:51:39;;;;;;;25.40;20.87;;;27.80;58.20;;;;;;5004458;28;20419;-84
2021/06/05 04:54:06;;;;;;;22.47;19.40;;;27.80;58.30;;;;;;5004866;28;20419;-84
2021/06/05 04:56:39;;;;;;;24.27;21.73;;;27.80;58.30;;;;;;5004493;28;20472;-81
2021/06/05 04:59:07;;;;;;;22.80;20.50;;;27.70;58.00;;;;;;5004665;28;20444;-81
2021/06/05 05:01:34;;;;;;;24.40;21.90;;;27.70;58.20;;;;;;5004238;28;20494;-81
2021/06/05 05:04:02;;;;;;;23.83;21.33;;;27.80;57.70;;;;;;5004153;28;20468;-81
2021/06/05 05:06:29;;;;;;;25.13;22.60;;;27.90;57.40;;;;;;5004494;28;20510;-81
2021/06/05 05:08:57;;;;;;;27.40;24.43;;;27.90;57.70;;;;;;5004235;28;20456;-84
2021/06/05 05:11:24;;;;;;;27.17;24.27;;;27.80;57.30;;;;;;5003799;28;20447;-78
2021/06/05 05:13:53;;;;;;;23.97;21.47;;;27.70;57.70;;;;;;5004356;28;20422;-84
2021/06/05 05:16:21;;;;;;;24.30;21.80;;;27.50;58.50;;;;;;5003887;28;20456;-78
2021/06/05 05:18:49;;;;;;;22.03;19.83;;;27.60;58.60;;;;;;5003618;28;20432;-78
2021/06/05 05:21:17;;;;;;;21.23;19.07;;;27.70;58.30;;;;;;5004086;28;20476;-83
2021/06/05 05:23:45;;;;;;;22.50;20.33;;;27.80;58.00;;;;;;5003755;28;20452;-82
2021/06/05 05:26:12;;;;;;;21.80;19.53;;;27.90;57.80;;;;;;5004514;28;20447;-82
2021/06/05 05:28:40;;;;;;;24.03;21.43;;;27.90;57.40;;;;;;5004578;28;20426;-82
2021/06/05 05:31:10;;;;;;;23.13;20.60;;;27.90;57.40;;;;;;5004053;28;20468;-79
2021/06/05 05:33:38;;;;;;;22.77;20.00;;;27.80;57.80;;;;;;5004697;28;20419;-82
2021/06/05 05:36:06;;;;;;;22.10;19.90;;;27.70;57.80;;;;;;5004768;28;20471;-82
2021/06/05 05:38:37;;;;;;;21.67;19.47;;;27.90;57.50;;;;;;5003932;28;20500;-82
2021/06/05 05:41:05;;;;;;;23.47;21.07;;;27.80;57.70;;;;;;5003830;28;20448;-83
2021/06/05 05:43:32;;;;;;;24.17;20.33;;;27.60;57.40;;;;;;5003936;28;20464;-83
2021/06/05 05:46:00;;;;;;;21.90;19.73;;;27.50;58.60;;;;;;5004008;28;20508;-82
2021/06/05 05:48:33;;;;;;;21.13;19.03;;;27.60;58.30;;;;;;5004246;28;20434;-82
2021/06/05 05:51:01;;;;;;;20.73;18.73;;;27.80;58.20;;;;;;5003944;28;20472;-82
2021/06/05 05:53:31;;;;;;;21.97;19.77;;;27.70;58.10;;;;;;5006219;28;20461;-82
2021/06/05 05:56:01;;;;;;;24.97;22.30;;;27.80;58.00;;;;;;5007524;28;20399;-83
2021/06/05 05:58:29;;;;;;;23.67;20.47;;;28.00;57.60;;;;;;5007989;28;20467;-83
2021/06/05 06:00:57;;;;;;;22.90;20.63;;;27.90;58.10;;;;;;4994729;28;20470;-82
2021/06/05 06:03:24;;;;;;;25.13;22.53;;;27.90;57.90;;;;;;4995196;28;20442;-83
2021/06/05 06:05:53;;;;;;;25.80;23.10;;;27.60;58.60;;;;;;5004952;28;20513;-83
2021/06/05 06:08:21;;;;;;;27.47;24.77;;;27.60;59.00;;;;;;4999258;28;20423;-83
2021/06/05 06:10:49;;;;;;;29.03;26.03;;;27.40;59.50;;;;;;4999027;28;20448;-83
2021/06/05 06:13:17;;;;;;;28.77;25.60;;;27.30;59.70;;;;;;4996064;28;20433;-83
2021/06/05 06:15:44;;;;;;;26.33;23.43;;;27.20;60.50;;;;;;4997395;28;20541;-83
2021/06/05 06:18:12;;;;;;;29.30;25.40;;;27.10;61.20;;;;;;5007593;28;20415;-83
2021/06/05 06:20:42;;;;;;;30.17;26.13;;;27.10;61.70;;;;;;5001263;28;20510;-82
2021/06/05 06:23:12;;;;;;;26.70;24.00;;;27.10;61.40;;;;;;4998405;28;20533;-83
2021/06/05 06:25:40;;;;;;;25.47;22.87;;;27.20;62.50;;;;;;4991670;28;20501;-84
2021/06/05 06:28:08;;;;;;;25.93;23.00;;;27.20;61.40;;;;;;4991397;28;20425;-85
2021/06/05 06:30:36;;;;;;;31.93;26.90;;;26.90;61.70;;;;;;4996020;28;20414;-85
2021/06/05 06:33:08;;;;;;;31.97;26.80;;;27.00;62.20;;;;;;4993343;28;20416;-85
2021/06/05 06:35:35;;;;;;;26.20;23.43;;;27.00;62.30;;;;;;4995893;28;20520;-88
2021/06/05 06:38:07;;;;;;;24.73;22.03;;;26.90;63.30;;;;;;4992523;28;20416;-86
2021/06/05 06:40:36;;;;;;;26.03;23.30;;;27.00;63.20;;;;;;4982654;28;20437;-83
2021/06/05 06:43:04;;;;;;;27.80;21.73;;;27.10;62.90;;;;;;4994906;28;20447;-84
2021/06/05 06:45:34;;;;;;;26.47;19.83;;;27.20;62.50;;;;;;4996314;28;20502;-85
2021/06/05 06:48:04;;;;;;;21.53;19.27;;;27.20;62.80;;;;;;4993012;28;20429;-83
2021/06/05 06:50:34;;;;;;;22.53;20.03;;;27.30;62.50;;;;;;4996220;28;20432;-81
2021/06/05 06:53:03;;;;;;;20.60;18.40;;;27.40;61.90;;;;;;4995040;28;20447;-84
2021/06/05 06:55:32;;;;;;;18.87;16.90;;;27.40;62.30;;;;;;4996715;28;20430;-85
2021/06/05 06:58:06;;;;;;;19.00;17.10;;;27.50;62.20;;;;;;4997716;28;20423;-82
2021/06/05 07:00:40;;;;;;;17.67;15.97;;;27.50;62.00;;;;;;4996425;28;20429;-83
2021/06/05 07:03:14;;;;;;;20.40;18.20;;;27.50;61.60;;;;;;4991779;28;20423;-82
2021/06/05 07:05:45;;;;;;;23.27;20.73;;;27.60;61.40;;;;;;4979337;28;20540;-84
2021/06/05 07:08:15;;;;;;;28.13;25.13;;;27.50;61.10;;;;;;4978209;28;20432;-84
2021/06/05 07:10:43;;;;;;;33.30;26.93;;;27.10;62.10;;;;;;4990615;28;20477;-81
2021/06/05 07:13:29;;;;;;;30.83;26.80;;;26.70;64.10;;;;;;4996384;28;20412;-82
2021/06/05 07:15:59;;;;;;;27.17;24.00;;;26.50;65.30;;;;;;4996305;28;20463;-84
2021/06/05 07:18:37;;;;;;;26.63;23.93;;;26.50;66.00;;;;;;4994406;28;20447;-83
2021/06/05 07:21:06;;;;;;;26.77;23.90;;;26.30;66.30;;;;;;4995019;28;20486;-82
2021/06/05 07:23:35;;;;;;;26.80;22.50;;;26.40;66.40;;;;;;4995590;28;20407;-80
2021/06/05 07:26:07;;;;;;;28.33;19.10;;;26.30;68.20;;;;;;4994675;28;20440;-81
2021/06/05 07:28:43;;;;;;;25.13;21.97;;;26.40;67.30;;;;;;4995310;28;20490;-81
2021/06/05 07:31:20;;;;;;;24.20;21.10;;;26.50;66.50;;;;;;4991920;28;20415;-81
2021/06/05 07:33:50;;;;;;;23.63;18.80;;;26.50;67.20;;;;;;4989226;28;20447;-80
2021/06/05 07:36:20;;;;;;;24.60;18.90;;;26.60;67.40;;;;;;4993869;28;20413;-80
2021/06/05 07:38:50;;;;;;;20.27;17.10;;;26.80;66.70;;;;;;4991118;28;20500;-82
2021/06/05 07:41:20;;;;;;;17.60;15.70;;;26.90;66.20;;;;;;4995795;28;20449;-80
2021/06/05 07:43:52;;;;;;;23.37;18.70;;;27.00;65.60;;;;;;4997172;28;20403;-83
2021/06/05 07:46:21;;;;;;;22.53;19.37;;;27.00;65.10;;;;;;4994952;28;20494;-84
2021/06/05 07:48:49;;;;;;;19.50;17.40;;;27.20;65.10;;;;;;4994846;28;20441;-84
2021/06/05 07:51:17;;;;;;;20.30;18.17;;;27.40;64.10;;;;;;4992298;28;20412;-84
2021/06/05 07:53:48;;;;;;;26.23;18.80;;;27.50;63.40;;;;;;4997056;28;20437;-83
2021/06/05 08:06:29;;;;;;;21.10;18.07;;;27.00;64.90;;;;;;4992487;28;20492;-90
2021/06/05 08:14:09;;;;;;;21.83;18.93;;;27.10;64.80;;;;;;4997160;28;20437;-89
2021/06/05 08:20:30;;;;;;;28.40;18.70;;;27.50;63.00;;;;;;4900606;28;20405;-84
2021/06/05 08:22:59;;;;;;;25.10;21.50;;;27.40;63.10;;;;;;4966220;28;20435;-84
2021/06/05 08:25:31;;;;;;;25.17;20.83;;;27.20;64.00;;;;;;4968488;28;20484;-83
2021/06/05 08:27:59;;;;;;;20.17;17.63;;;27.20;64.10;;;;;;4998782;28;20470;-82
2021/06/05 08:30:28;;;;;;;21.30;18.90;;;27.20;64.10;;;;;;4995797;28;20480;-83
2021/06/05 08:33:12;;;;;;;28.57;18.97;;;27.20;64.70;;;;;;4989152;28;20453;-87
2021/06/05 08:35:58;;;;;;;22.63;18.50;;;27.20;64.90;;;;;;4997316;28;20450;-82
2021/06/05 08:38:36;;;;;;;28.50;19.83;;;27.30;65.00;;;;;;4995314;28;20426;-81
2021/06/05 08:41:24;;;;;;;30.07;20.57;;;27.40;64.50;;;;;;4993993;28;20448;-83
2021/06/05 08:43:52;;;;;;;24.23;20.13;;;27.20;64.80;;;;;;5004933;28;20433;-79
2021/06/05 08:46:22;;;;;;;27.07;19.90;;;27.20;65.50;;;;;;5004187;28;20554;-82
2021/06/05 08:48:51;;;;;;;30.37;20.87;;;27.20;65.70;;;;;;5004874;28;20418;-84
2021/06/05 08:51:25;;;;;;;22.63;19.67;;;27.00;65.90;;;;;;5004489;28;20426;-85
2021/06/05 08:53:57;;;;;;;27.20;15.83;;;27.10;66.50;;;;;;4993412;28;20407;-81
2021/06/05 08:56:29;;;;;;;27.23;19.37;;;27.30;65.90;;;;;;4997515;28;20431;-82
2021/06/05 08:58:59;;;;;;;27.77;19.23;;;27.30;65.50;;;;;;4996644;28;20481;-84
2021/06/05 09:01:29;;;;;;;28.93;18.77;;;27.50;64.90;;;;;;5007386;28;20466;-81
2021/06/05 09:03:58;;;;;;;40.37;18.30;;;27.50;64.60;;;;;;5006242;28;20415;-80
2021/06/05 09:06:33;;;;;;;27.03;18.23;;;27.60;64.40;;;;;;5008895;28;20506;-81
2021/06/05 09:09:02;;;;;;;19.83;17.10;;;27.70;64.10;;;;;;4993576;28;20438;-80
2021/06/05 09:11:33;;;;;;;26.27;17.30;;;27.70;64.00;;;;;;4988057;28;20536;-82
2021/06/05 09:14:01;;;;;;;25.73;20.10;;;27.70;63.90;;;;;;4987070;28;20449;-82
2021/06/05 09:16:40;;;;;;;26.73;22.93;;;27.70;64.00;;;;;;4987565;28;20441;-83
2021/06/05 09:19:26;;;;;;;33.27;21.70;;;27.70;63.40;;;;;;4987130;28;20420;-85
2021/06/05 09:22:17;;;;;;;25.50;19.90;;;27.70;63.60;;;;;;4986671;28;20486;-84
2021/06/05 09:24:46;;;;;;;23.00;18.70;;;27.70;63.80;;;;;;4986948;28;20416;-84
2021/06/05 09:27:14;;;;;;;23.40;18.20;;;27.70;63.90;;;;;;4986412;28;20443;-83
2021/06/05 09:29:51;;;;;;;23.73;17.97;;;27.80;63.50;;;;;;4990879;28;20423;-84
2021/06/05 09:32:20;;;;;;;20.93;17.27;;;27.80;63.50;;;;;;4989805;28;20437;-84
2021/06/05 09:34:50;;;;;;;22.80;17.40;;;27.80;63.60;;;;;;4989699;28;20445;-84
2021/06/05 09:37:33;;;;;;;25.20;15.90;;;27.80;64.40;;;;;;5000912;28;20475;-83
2021/06/05 09:40:05;;;;;;;19.87;15.70;;;27.80;63.90;;;;;;4997012;28;20453;-84
2021/06/05 09:42:35;;;;;;;21.33;17.23;;;27.90;63.90;;;;;;4975558;28;20454;-82
2021/06/05 09:45:05;;;;;;;23.80;20.47;;;27.70;63.70;;;;;;4993649;28;20408;-82
2021/06/05 09:47:33;;;;;;;26.83;19.10;;;27.70;64.30;;;;;;4992489;28;20462;-82
2021/06/05 09:50:16;;;;;;;26.30;20.13;;;27.80;64.30;;;;;;4992753;28;20412;-82
2021/06/05 09:52:45;;;;;;;26.60;19.37;;;27.90;64.80;;;;;;4992529;28;20419;-82
2021/06/05 09:55:37;;;;;;;24.43;20.63;;;27.90;64.40;;;;;;4992917;28;20407;-82
2021/06/05 09:58:09;;;;;;;27.30;19.13;;;27.90;64.50;;;;;;4993008;28;20490;-79
2021/06/05 10:00:39;;;;;;;25.77;18.83;;;28.00;65.30;;;;;;4990692;28;20452;-77
2021/06/05 10:03:25;;;;;;;22.20;19.37;;;28.10;65.10;;;;;;4985315;28;20427;-76
2021/06/05 10:05:52;;;;;;;29.77;18.80;;;28.20;65.30;;;;;;4986235;28;20481;-77
2021/06/05 10:08:28;;;;;;;31.00;18.77;;;28.40;65.10;;;;;;4983580;28;20452;-77
2021/06/05 10:11:00;;;;;;;26.93;17.60;;;28.50;64.70;;;;;;4982865;28;20482;-79
2021/06/05 10:13:31;;;;;;;25.33;17.10;;;28.50;64.60;;;;;;4982453;28;20404;-82
2021/06/05 10:16:00;;;;;;;21.50;17.17;;;28.60;64.40;;;;;;4985773;28;20503;-79
2021/06/05 10:18:31;;;;;;;24.27;18.30;;;28.60;64.80;;;;;;4985172;28;20409;-81
2021/06/05 10:21:04;;;;;;;25.40;19.90;;;28.70;64.30;;;;;;4982384;28;20404;-79
2021/06/05 10:23:34;;;;;;;23.40;18.47;;;28.80;64.10;;;;;;4982550;28;20448;-80
2021/06/05 10:26:03;;;;;;;22.10;16.60;;;28.90;63.90;;;;;;4984277;28;20547;-76
2021/06/05 10:28:33;;;;;;;20.87;15.63;;;29.00;63.60;;;;;;4984980;28;20430;-77
2021/06/05 10:31:04;;;;;;;24.37;18.90;;;29.00;63.00;;;;;;4984407;28;20488;-79
2021/06/05 10:33:38;;;;;;;24.00;19.33;;;29.00;63.00;;;;;;4979451;28;20452;-79
2021/06/05 10:36:10;;;;;;;22.93;18.77;;;29.00;63.40;;;;;;4980271;28;20497;-78
2021/06/05 10:38:41;;;;;;;23.37;16.47;;;29.20;63.70;;;;;;4980101;28;20488;-77
2021/06/05 10:41:11;;;;;;;21.47;15.93;;;29.20;63.10;;;;;;4985245;28;20447;-78
2021/06/05 10:43:39;;;;;;;23.53;18.80;;;29.30;62.60;;;;;;4982739;28;20445;-78
2021/06/05 10:46:29;;;;;;;19.60;17.43;;;29.40;63.40;;;;;;4975239;28;20532;-78
2021/06/05 10:49:07;;;;;;;21.07;17.50;;;29.50;63.30;;;;;;4979889;28;20427;-81
2021/06/05 10:51:35;;;;;;;19.30;16.87;;;29.30;63.50;;;;;;4979858;28;20419;-78
2021/06/05 10:54:05;;;;;;;19.47;17.40;;;29.40;63.50;;;;;;4977978;28;20475;-81
2021/06/05 10:56:36;;;;;;;18.00;16.07;;;29.30;63.20;;;;;;4978194;28;20430;-81
2021/06/05 10:59:06;;;;;;;19.73;17.63;;;29.30;62.90;;;;;;4974434;28;20462;-80
2021/06/05 11:01:48;;;;;;;20.97;18.63;;;29.30;62.40;;;;;;4977117;28;20522;-81
2021/06/05 11:04:40;;;;;;;19.50;17.40;;;29.20;62.60;;;;;;4974601;28;20435;-80
2021/06/05 11:07:33;;;;;;;21.60;17.63;;;29.20;62.50;;;;;;4978518;28;20465;-81
2021/06/05 11:10:05;;;;;;;26.10;18.20;;;29.20;62.90;;;;;;4979859;28;20462;-81
2021/06/05 11:12:50;;;;;;;20.70;18.60;;;28.90;63.40;;;;;;4976399;28;20421;-80
2021/06/05 11:15:59;;;;;;;22.27;17.40;;;29.00;63.30;;;;;;4987506;28;20419;-78
2021/06/05 11:18:29;;;;;;;18.57;15.50;;;29.10;63.70;;;;;;4982324;28;20568;-80
2021/06/05 11:20:59;;;;;;;18.50;16.23;;;29.20;62.80;;;;;;4984045;28;20444;-82
2021/06/05 11:23:41;;;;;;;21.10;19.03;;;29.30;62.50;;;;;;4978093;28;20461;-82
2021/06/05 11:26:42;;;;;;;28.03;23.00;;;29.30;62.60;;;;;;4976563;28;20446;-84
2021/06/05 11:29:50;;;;;;;22.77;20.23;;;29.20;62.40;;;;;;4963579;28;20516;-85
2021/06/05 11:32:50;;;;;;;30.77;22.03;;;29.20;62.50;;;;;;4974298;28;20428;-82
2021/06/05 11:35:41;;;;;;;23.33;20.90;;;29.00;63.10;;;;;;4980788;28;20428;-81
2021/06/05 11:38:12;;;;;;;23.40;21.10;;;28.90;64.30;;;;;;4976321;28;20445;-83
2021/06/05 11:41:02;;;;;;;20.93;18.93;;;28.90;63.80;;;;;;5001264;28;20450;-81
2021/06/05 11:43:45;;;;;;;24.13;21.77;;;29.00;63.80;;;;;;4991676;28;20420;-77
2021/06/05 11:46:46;;;;;;;20.17;18.30;;;28.90;62.70;;;;;;4978200;28;20457;-79
2021/06/05 11:49:50;;;;;;;23.60;21.10;;;28.90;63.70;;;;;;4977905;28;20507;-79
2021/06/05 11:52:42;;;;;;;25.60;18.70;;;28.70;63.70;;;;;;4977446;28;20426;-77
2021/06/05 11:55:23;;;;;;;24.23;21.80;;;29.00;63.80;;;;;;4980620;28;20471;-79
2021/06/05 11:57:59;;;;;;;21.80;19.73;;;29.50;63.00;;;;;;4983531;28;20498;-77
2021/06/05 12:00:32;;;;;;;23.20;19.67;;;30.00;62.60;;;;;;4979347;28;20424;-79
2021/06/05 12:03:02;;;;;;;19.93;17.10;;;30.40;61.40;;;;;;4990226;28;20442;-79
2021/06/05 12:05:31;;;;;;;18.20;16.27;;;30.70;59.70;;;;;;4988651;28;20458;-80
2021/06/05 12:07:59;;;;;;;25.43;23.00;;;30.90;59.20;;;;;;4988180;28;20481;-83
2021/06/05 12:10:34;;;;;;;19.87;17.77;;;31.00;58.10;;;;;;4988263;28;20441;-75
2021/06/05 12:13:02;;;;;;;18.73;16.50;;;31.00;58.30;;;;;;4988399;28;20476;-79
2021/06/05 12:15:37;;;;;;;25.63;23.13;;;31.10;57.60;;;;;;4989174;28;20461;-76
2021/06/05 12:18:07;;;;;;;21.77;19.47;;;31.00;56.90;;;;;;5002804;28;20428;-77
2021/06/05 12:20:38;;;;;;;28.70;25.80;;;30.80;57.90;;;;;;4997596;28;20441;-78
2021/06/05 12:23:19;;;;;;;22.10;19.90;;;30.80;57.00;;;;;;4989591;28;20504;-77
2021/06/05 12:25:47;;;;;;;30.90;22.17;;;30.60;58.50;;;;;;4990091;28;20465;-77
2021/06/05 12:28:16;;;;;;;22.03;19.77;;;30.60;58.30;;;;;;4989487;28;20530;-77
2021/06/05 12:30:48;;;;;;;21.60;19.50;;;30.50;58.30;;;;;;4989541;28;20445;-78
2021/06/05 12:33:26;;;;;;;24.27;21.93;;;30.50;58.70;;;;;;4989435;28;20456;-79
2021/06/05 12:35:54;;;;;;;27.03;24.53;;;30.50;58.40;;;;;;4989916;28;20445;-79
2021/06/05 12:38:31;;;;;;;24.73;22.13;;;30.20;57.10;;;;;;4985227;28;20489;-78
2021/06/05 12:41:00;;;;;;;24.70;22.20;;;30.00;58.00;;;;;;4980049;28;20472;-78
2021/06/05 12:43:30;;;;;;;27.93;25.07;;;29.90;58.30;;;;;;4980330;28;20501;-79
2021/06/05 12:45:59;;;;;;;24.80;22.40;;;30.30;57.20;;;;;;4979885;28;20481;-79
2021/06/05 12:48:27;;;;;;;23.90;21.47;;;30.20;57.30;;;;;;4975192;28;20485;-78
2021/06/05 12:50:54;;;;;;;32.70;23.23;;;30.30;57.40;;;;;;4983014;28;20435;-79
2021/06/05 12:53:24;;;;;;;22.47;20.13;;;30.30;58.30;;;;;;4983859;28;20494;-78
2021/06/05 12:55:52;;;;;;;23.87;21.67;;;30.20;58.00;;;;;;4977989;28;20445;-78
2021/06/05 12:58:39;;;;;;;28.23;25.43;;;30.20;57.70;;;;;;4981629;28;20420;-78
2021/06/05 13:01:27;;;;;;;29.70;25.97;;;29.70;59.40;;;;;;5007358;28;20460;-78
2021/06/05 13:03:55;;;;;;;29.93;26.77;;;29.70;58.80;;;;;;5013038;28;20406;-79
2021/06/05 13:06:27;;;;;;;26.13;23.63;;;29.50;59.60;;;;;;5013125;28;20476;-78
2021/06/05 13:08:55;;;;;;;31.10;27.87;;;29.30;60.40;;;;;;5013419;28;20494;-78